NC13 weather

Public forecast

Using degrees Fahrenheit for public forecast. Weather courtesy of forecast.io.

Closest aviation weather report (METAR) to Yorks Field

Closest report is Siler City Municipal Airport, 8.6 nm (15.9 km) ESE. Retrieved 2020/08/15 03:35 UTC (3 minutes ago):

KSCR 150335Z AUTO 00000KT 10SM SCT039 SCT110 23/23 A2996 RMK AO2 T02340231

Closest aviation forecast (TAF) to Yorks Field

Closest forecast is Piedmont Triad International Airport, 24.5 nm (45.4 km) NNW. Retrieved 2020-08-15 00:42 UTC (3 hours ago):

TAF KGSO 142339Z 1500/1524 VRB06KT P6SM VCTS BKN035CB TEMPO 1500/1502 1SM TSRA BKN020CB FM150300 05002KT P6SM -SHRA OVC035 FM150700 08003KT 5SM BR VCSH SCT004 OVC015 FM150900 06003KT 4SM BR VCSH OVC004 FM151500 06004KT 6SM BR SCT004 SCT008 OVC015 FM151800 05006KT 6SM BR VCTS SCT015 BKN035CB TEMPO 1520/1524 2SM -TSRA BKN015CB